createdAt,value
2023-12-09T00:01:32.124Z,2.64
2023-12-09T00:04:00.489Z,2.65
2023-12-09T00:06:28.946Z,2.67
2023-12-09T00:08:57.395Z,2.67
2023-12-09T00:11:25.538Z,2.66
2023-12-09T00:13:53.650Z,2.66
2023-12-09T00:16:21.958Z,2.67
2023-12-09T00:18:50.359Z,2.68
2023-12-09T00:21:18.876Z,2.69
2023-12-09T00:23:48.417Z,2.71
2023-12-09T00:26:17.314Z,2.73
2023-12-09T00:28:46.662Z,2.76
2023-12-09T00:31:14.909Z,2.79
2023-12-09T00:33:43.425Z,2.81
2023-12-09T00:36:11.877Z,2.81
2023-12-09T00:38:41.199Z,2.82
2023-12-09T00:41:10.876Z,2.84
2023-12-09T00:43:39.109Z,2.86
2023-12-09T00:46:07.614Z,2.88
2023-12-09T00:48:35.934Z,2.89
2023-12-09T00:51:04.926Z,2.90
2023-12-09T00:53:33.135Z,2.89
2023-12-09T00:56:01.329Z,2.91
2023-12-09T00:58:29.524Z,2.92
2023-12-09T01:00:57.750Z,2.94
2023-12-09T01:03:26.006Z,2.96
2023-12-09T01:05:54.317Z,2.97
2023-12-09T01:08:22.522Z,2.99
2023-12-09T01:10:50.683Z,3.03
2023-12-09T01:13:19.166Z,3.06
2023-12-09T01:15:47.647Z,3.09
2023-12-09T01:18:15.945Z,3.11
2023-12-09T01:20:44.180Z,3.13
2023-12-09T01:23:12.854Z,3.14
2023-12-09T01:25:41.038Z,3.16
2023-12-09T01:28:09.221Z,3.19
2023-12-09T01:30:37.444Z,3.20
2023-12-09T01:33:05.962Z,3.21
2023-12-09T01:35:34.295Z,3.22
2023-12-09T01:38:02.913Z,3.22
2023-12-09T01:40:31.056Z,3.22
2023-12-09T01:42:59.236Z,3.21
2023-12-09T01:45:27.494Z,3.20
2023-12-09T01:47:55.864Z,3.19
2023-12-09T01:50:24.617Z,3.19
2023-12-09T01:52:53.368Z,3.17
2023-12-09T01:55:21.582Z,3.15
2023-12-09T01:57:49.845Z,3.11
2023-12-09T02:00:20.705Z,3.07
2023-12-09T02:02:50.262Z,3.03
2023-12-09T02:05:18.870Z,3.02
2023-12-09T02:07:47.098Z,3.01
2023-12-09T02:10:18.013Z,2.99
2023-12-09T02:12:55.503Z,2.97
2023-12-09T02:15:28.441Z,2.96
2023-12-09T02:18:06.018Z,2.94
2023-12-09T02:20:35.147Z,2.92
2023-12-09T02:23:09.850Z,2.90
2023-12-09T02:25:39.366Z,2.87
2023-12-09T02:28:15.019Z,2.86
2023-12-09T02:31:03.424Z,2.85
2023-12-09T02:33:33.223Z,2.84
2023-12-09T02:36:04.894Z,2.83
2023-12-09T02:38:35.738Z,2.80
2023-12-09T02:41:05.064Z,2.79
2023-12-09T02:43:33.245Z,2.79
2023-12-09T02:46:01.429Z,2.79
2023-12-09T02:48:29.930Z,2.79
2023-12-09T02:50:58.176Z,2.78
2023-12-09T02:53:26.337Z,2.76
2023-12-09T02:55:54.485Z,2.76
2023-12-09T02:58:22.634Z,2.75
2023-12-09T03:00:50.877Z,2.74
2023-12-09T03:03:19.133Z,2.73
2023-12-09T03:05:47.432Z,2.72
2023-12-09T03:08:15.684Z,2.72
2023-12-09T03:10:43.844Z,2.73
2023-12-09T03:13:13.014Z,2.72
2023-12-09T03:15:41.220Z,2.73
2023-12-09T03:18:09.588Z,2.73
2023-12-09T03:20:38.122Z,2.74
2023-12-09T03:23:06.273Z,2.78
2023-12-09T03:25:34.599Z,2.80
2023-12-09T03:28:02.772Z,2.81
2023-12-09T03:30:31.019Z,2.83
2023-12-09T03:32:59.378Z,2.85
2023-12-09T03:35:27.856Z,2.88
2023-12-09T03:37:55.976Z,2.92
2023-12-09T03:40:24.112Z,2.94
2023-12-09T03:42:52.203Z,2.94
2023-12-09T03:45:20.391Z,2.95
2023-12-09T03:47:48.690Z,2.97
2023-12-09T03:50:17.027Z,2.97
2023-12-09T03:52:45.192Z,2.97
2023-12-09T03:55:15.637Z,2.98
2023-12-09T03:57:45.614Z,2.99
2023-12-09T04:00:14.264Z,3.01
2023-12-09T04:02:42.410Z,3.02
2023-12-09T04:05:11.332Z,3.01
2023-12-09T04:07:39.599Z,3.03
2023-12-09T04:10:10.389Z,3.05
2023-12-09T04:12:38.747Z,3.04
2023-12-09T04:15:08.364Z,3.06
2023-12-09T04:17:37.626Z,3.08
2023-12-09T04:20:10.179Z,3.08
2023-12-09T04:22:41.525Z,3.07
2023-12-09T04:25:10.244Z,3.06
2023-12-09T04:27:38.462Z,3.07
2023-12-09T04:30:07.362Z,3.09
2023-12-09T04:32:36.491Z,3.11
2023-12-09T04:35:05.075Z,3.11
2023-12-09T04:37:33.547Z,3.12
2023-12-09T04:40:02.508Z,3.12
2023-12-09T04:42:30.903Z,3.12
2023-12-09T04:44:59.287Z,3.13
2023-12-09T04:47:27.965Z,3.14
2023-12-09T04:49:56.127Z,3.15
2023-12-09T04:52:24.835Z,3.15
2023-12-09T04:54:53.724Z,3.15
2023-12-09T04:57:22.188Z,3.15
2023-12-09T04:59:50.748Z,3.15
2023-12-09T05:02:21.637Z,3.15
2023-12-09T05:04:50.220Z,3.17
2023-12-09T05:07:18.397Z,3.18
2023-12-09T05:09:46.623Z,3.17
2023-12-09T05:12:15.637Z,3.18
2023-12-09T05:14:43.858Z,3.19
2023-12-09T05:17:12.779Z,3.18
2023-12-09T05:19:41.029Z,3.17
2023-12-09T05:22:09.323Z,3.17
2023-12-09T05:24:37.565Z,3.19
2023-12-09T05:27:06.100Z,3.18
2023-12-09T05:29:34.475Z,3.17
2023-12-09T05:32:03.048Z,3.17
2023-12-09T05:34:31.447Z,3.19
2023-12-09T05:36:59.741Z,3.17
2023-12-09T05:39:27.986Z,3.14
2023-12-09T05:41:56.203Z,3.12
2023-12-09T05:44:24.381Z,3.12
2023-12-09T05:46:52.765Z,3.13
2023-12-09T05:49:21.086Z,3.14
2023-12-09T05:51:49.427Z,3.15
2023-12-09T05:54:17.773Z,3.16
2023-12-09T05:56:52.031Z,3.17
2023-12-09T05:59:20.175Z,3.14
2023-12-09T06:01:48.321Z,3.10
2023-12-09T06:04:16.481Z,3.10
2023-12-09T06:06:44.792Z,3.11
2023-12-09T06:09:12.976Z,3.12
2023-12-09T06:11:41.218Z,3.14
2023-12-09T06:14:09.436Z,3.15
2023-12-09T06:16:37.611Z,3.14
2023-12-09T06:19:05.769Z,3.15
2023-12-09T06:21:34.099Z,3.17
2023-12-09T06:24:02.468Z,3.19
2023-12-09T06:26:30.696Z,3.21
2023-12-09T06:28:58.855Z,3.22
2023-12-09T06:31:26.991Z,3.23
2023-12-09T06:33:55.224Z,3.24
2023-12-09T06:36:23.525Z,3.27
2023-12-09T06:38:51.649Z,3.28
2023-12-09T06:41:20.103Z,3.29
2023-12-09T06:43:48.238Z,3.31
2023-12-09T06:46:16.473Z,3.33
2023-12-09T06:48:44.796Z,3.34
2023-12-09T06:51:17.455Z,3.33
2023-12-09T06:53:45.808Z,3.35
2023-12-09T06:56:23.988Z,3.37
2023-12-09T06:58:52.643Z,3.39
2023-12-09T07:01:25.137Z,3.39
2023-12-09T07:03:53.559Z,3.41
2023-12-09T07:06:23.579Z,3.43
2023-12-09T07:08:52.784Z,3.45
2023-12-09T07:11:22.414Z,3.46
2023-12-09T07:13:51.216Z,3.49
2023-12-09T07:16:19.948Z,3.50
2023-12-09T07:18:49.449Z,3.51
2023-12-09T07:21:18.662Z,3.51
2023-12-09T07:23:47.038Z,3.50
2023-12-09T07:26:15.578Z,3.50
2023-12-09T07:28:43.789Z,3.53
2023-12-09T07:31:12.775Z,3.56
2023-12-09T07:33:41.102Z,3.60
2023-12-09T07:36:09.843Z,3.65
2023-12-09T07:38:38.086Z,3.71
2023-12-09T07:41:06.513Z,3.76
2023-12-09T07:43:35.654Z,3.79
2023-12-09T07:46:05.195Z,3.83
2023-12-09T07:48:33.638Z,3.88
2023-12-09T07:51:02.611Z,3.92
2023-12-09T07:53:31.359Z,3.95
2023-12-09T07:55:59.644Z,3.97
2023-12-09T07:58:28.090Z,4.02
2023-12-09T08:00:56.529Z,4.05
2023-12-09T08:03:24.886Z,4.08
2023-12-09T08:05:53.292Z,4.11
2023-12-09T08:08:21.459Z,4.16
2023-12-09T08:10:49.693Z,4.21
2023-12-09T08:13:17.860Z,4.26
2023-12-09T08:15:46.079Z,4.30
2023-12-09T08:18:14.376Z,4.36
2023-12-09T08:20:42.812Z,4.40
2023-12-09T08:23:10.996Z,4.45
2023-12-09T08:25:39.309Z,4.50
2023-12-09T08:28:08.583Z,4.55
2023-12-09T08:30:37.095Z,4.56
2023-12-09T08:33:05.510Z,4.61
2023-12-09T08:35:34.100Z,4.66
2023-12-09T08:38:02.395Z,4.69
2023-12-09T08:40:30.555Z,4.72
2023-12-09T08:42:58.844Z,4.74
2023-12-09T08:45:27.022Z,4.74
2023-12-09T08:47:55.301Z,4.74
2023-12-09T08:50:25.530Z,4.78
2023-12-09T08:52:54.624Z,4.81
2023-12-09T08:55:24.020Z,4.84
2023-12-09T08:57:53.755Z,4.87
2023-12-09T09:00:25.109Z,4.92
2023-12-09T09:02:57.218Z,4.98
2023-12-09T09:05:25.876Z,5.04
2023-12-09T09:07:54.161Z,5.09
2023-12-09T09:10:24.207Z,5.11
2023-12-09T09:12:52.634Z,5.10
2023-12-09T09:15:22.127Z,5.13
2023-12-09T09:17:50.772Z,5.15
2023-12-09T09:20:19.228Z,5.18
2023-12-09T09:22:48.594Z,5.23
2023-12-09T09:25:17.295Z,5.28
2023-12-09T09:27:46.009Z,5.30
2023-12-09T09:30:15.081Z,5.36
2023-12-09T09:32:43.490Z,5.36
2023-12-09T09:35:11.857Z,5.38
2023-12-09T09:37:39.950Z,5.45
2023-12-09T09:40:08.740Z,5.49
2023-12-09T09:43:01.715Z,5.51
2023-12-09T09:45:32.172Z,5.53
2023-12-09T09:48:07.407Z,5.56
2023-12-09T09:50:43.544Z,5.60
2023-12-09T09:53:14.094Z,5.66
2023-12-09T09:55:43.317Z,5.70
2023-12-09T09:58:14.645Z,5.66
2023-12-09T10:00:43.256Z,5.67
2023-12-09T10:03:11.715Z,5.72
2023-12-09T10:05:40.030Z,5.75
2023-12-09T10:08:08.199Z,5.79
2023-12-09T10:10:36.557Z,5.80
2023-12-09T10:13:05.074Z,5.81
2023-12-09T10:15:33.632Z,5.84
2023-12-09T10:18:05.084Z,5.87
2023-12-09T10:20:36.389Z,5.89
2023-12-09T10:23:04.923Z,5.90
2023-12-09T10:25:33.126Z,5.94
2023-12-09T10:28:01.347Z,5.96
2023-12-09T10:30:30.052Z,5.95
2023-12-09T10:33:00.635Z,5.94
2023-12-09T10:35:29.649Z,5.94
2023-12-09T10:38:02.207Z,5.97
2023-12-09T10:40:30.402Z,6.02
2023-12-09T10:42:58.720Z,6.07
2023-12-09T10:45:26.976Z,6.14
2023-12-09T10:47:55.314Z,6.23
2023-12-09T10:50:23.996Z,6.28
2023-12-09T10:52:52.130Z,6.31
2023-12-09T10:55:20.890Z,6.25
2023-12-09T10:57:51.597Z,6.21
2023-12-09T11:00:20.487Z,6.15
2023-12-09T11:02:49.293Z,6.14
2023-12-09T11:05:19.369Z,6.12
2023-12-09T11:07:48.482Z,6.03
2023-12-09T11:10:17.452Z,6.00
2023-12-09T11:12:49.270Z,6.03
2023-12-09T11:15:23.547Z,6.00
2023-12-09T11:17:55.169Z,5.99
2023-12-09T11:20:26.343Z,6.10
2023-12-09T11:22:54.765Z,6.17
2023-12-09T11:25:26.617Z,6.21
2023-12-09T11:27:55.773Z,6.22
2023-12-09T11:30:38.338Z,6.24
2023-12-09T11:33:06.734Z,6.34
2023-12-09T11:35:36.510Z,6.44
2023-12-09T11:38:07.476Z,6.53
2023-12-09T11:40:35.848Z,6.60
2023-12-09T11:43:04.899Z,6.62
2023-12-09T11:45:33.432Z,6.67
2023-12-09T11:48:04.878Z,6.75
2023-12-09T11:50:33.394Z,6.77
2023-12-09T11:53:01.519Z,6.77
2023-12-09T11:55:30.624Z,6.75
2023-12-09T11:57:58.918Z,6.73
2023-12-09T12:00:27.618Z,6.76
2023-12-09T12:02:56.284Z,6.83
2023-12-09T12:05:24.711Z,6.90
2023-12-09T12:07:53.364Z,6.94
2023-12-09T12:10:21.909Z,6.97
2023-12-09T12:12:50.378Z,6.98
2023-12-09T12:15:18.972Z,6.99
2023-12-09T12:17:48.258Z,7.04
2023-12-09T12:20:16.811Z,7.05
2023-12-09T12:22:45.268Z,6.97
2023-12-09T12:25:13.660Z,6.89
2023-12-09T12:27:46.443Z,6.84
2023-12-09T12:30:15.637Z,6.84
2023-12-09T12:32:44.841Z,6.80
2023-12-09T12:35:13.745Z,6.75
2023-12-09T12:37:42.178Z,6.69
2023-12-09T12:40:11.394Z,6.66
2023-12-09T12:42:40.473Z,6.62
2023-12-09T12:45:20.192Z,6.50
2023-12-09T12:47:49.257Z,6.34
2023-12-09T12:50:18.752Z,6.23
2023-12-09T12:52:47.122Z,6.18
2023-12-09T12:55:15.440Z,6.19
2023-12-09T12:57:45.253Z,6.16
2023-12-09T13:00:15.933Z,6.09
2023-12-09T13:02:44.900Z,6.06
2023-12-09T13:05:13.406Z,6.05
2023-12-09T13:07:42.088Z,6.03
2023-12-09T13:10:11.005Z,6.05
2023-12-09T13:12:39.356Z,6.02
2023-12-09T13:15:08.562Z,5.99
2023-12-09T13:17:37.753Z,5.96
2023-12-09T13:20:06.850Z,5.92
2023-12-09T13:22:35.302Z,5.83
2023-12-09T13:25:08.542Z,5.78
2023-12-09T13:27:38.380Z,5.78
2023-12-09T13:30:08.362Z,5.81
2023-12-09T13:32:37.827Z,5.83
2023-12-09T13:35:08.055Z,5.81
2023-12-09T13:37:38.833Z,5.77
2023-12-09T13:40:08.902Z,5.74
2023-12-09T13:42:37.472Z,5.72
2023-12-09T13:45:07.045Z,5.67
2023-12-09T13:47:35.471Z,5.63
2023-12-09T13:50:06.016Z,5.57
2023-12-09T13:52:38.025Z,5.47
2023-12-09T13:55:07.051Z,5.39
2023-12-09T13:57:35.383Z,5.33
2023-12-09T14:00:09.297Z,5.27
2023-12-09T14:02:41.157Z,5.21
2023-12-09T14:05:11.565Z,5.15
2023-12-09T14:07:42.134Z,5.09
2023-12-09T14:10:11.016Z,5.04
2023-12-09T14:12:41.653Z,4.95
2023-12-09T14:15:10.954Z,4.86
2023-12-09T14:17:45.176Z,4.78
2023-12-09T14:20:16.825Z,4.70
2023-12-09T14:22:47.434Z,4.61
2023-12-09T14:25:16.065Z,4.53
2023-12-09T14:27:44.963Z,4.48
2023-12-09T14:30:14.045Z,4.44
2023-12-09T14:32:46.387Z,4.39
2023-12-09T14:35:16.113Z,4.33
2023-12-09T14:37:49.431Z,4.30
2023-12-09T14:40:18.545Z,4.25
2023-12-09T14:42:47.141Z,4.20
2023-12-09T14:45:15.902Z,4.14
2023-12-09T14:47:53.813Z,4.08
2023-12-09T14:50:28.018Z,4.04
2023-12-09T14:52:56.512Z,3.99
2023-12-09T14:55:24.781Z,3.92
2023-12-09T14:57:53.680Z,3.87
2023-12-09T15:00:22.170Z,3.81
2023-12-09T15:02:50.654Z,3.73
2023-12-09T15:05:19.023Z,3.65
2023-12-09T15:07:47.583Z,3.58
2023-12-09T15:10:16.910Z,3.50
2023-12-09T15:12:45.251Z,3.41
2023-12-09T15:15:13.797Z,3.34
2023-12-09T15:17:42.503Z,3.28
2023-12-09T15:20:11.549Z,3.22
2023-12-09T15:22:40.755Z,3.14
2023-12-09T15:25:09.914Z,3.09
2023-12-09T15:27:39.073Z,3.03
2023-12-09T15:30:09.376Z,2.98
2023-12-09T15:32:40.680Z,2.92
2023-12-09T15:35:09.815Z,2.87
2023-12-09T15:37:38.756Z,2.83
2023-12-09T15:40:12.067Z,2.80
2023-12-09T15:42:40.559Z,2.76
2023-12-09T15:45:10.011Z,2.71
2023-12-09T15:47:38.437Z,2.68
2023-12-09T15:50:07.616Z,2.66
2023-12-09T15:52:36.065Z,2.64
2023-12-09T15:55:05.212Z,2.60
2023-12-09T15:57:33.592Z,2.57
2023-12-09T16:00:02.023Z,2.55
2023-12-09T16:02:34.352Z,2.52
2023-12-09T16:05:02.969Z,2.47
2023-12-09T16:07:31.521Z,2.43
2023-12-09T16:09:59.850Z,2.40
2023-12-09T16:12:28.653Z,2.36
2023-12-09T16:14:57.181Z,2.32
2023-12-09T16:17:26.386Z,2.30
2023-12-09T16:19:54.838Z,2.28
2023-12-09T16:22:23.136Z,2.27
2023-12-09T16:24:52.038Z,2.26
2023-12-09T16:27:20.518Z,2.27
2023-12-09T16:29:48.967Z,2.25
2023-12-09T16:32:17.387Z,2.24
2023-12-09T16:34:45.599Z,2.22
2023-12-09T16:37:14.044Z,2.21
2023-12-09T16:39:42.515Z,2.20
2023-12-09T16:42:10.997Z,2.20
2023-12-09T16:44:39.284Z,2.19
2023-12-09T16:47:07.475Z,2.18
2023-12-09T16:49:35.710Z,2.17
2023-12-09T16:52:05.025Z,2.12
2023-12-09T16:54:33.360Z,2.09
2023-12-09T16:57:02.352Z,2.07
2023-12-09T16:59:30.914Z,2.04
2023-12-09T17:02:00.493Z,2.03
2023-12-09T17:04:29.085Z,2.03
2023-12-09T17:06:57.581Z,2.04
2023-12-09T17:09:26.484Z,2.06
2023-12-09T17:11:54.874Z,2.04
2023-12-09T17:14:23.140Z,2.03
2023-12-09T17:16:51.380Z,2.13
2023-12-09T17:19:20.004Z,2.22
2023-12-09T17:21:48.237Z,2.27
2023-12-09T17:24:16.601Z,2.27
2023-12-09T17:26:44.731Z,2.31
2023-12-09T17:29:13.150Z,2.33
2023-12-09T17:31:43.601Z,2.31
2023-12-09T17:34:14.003Z,2.30
2023-12-09T17:36:42.358Z,2.30
2023-12-09T17:39:11.480Z,2.29
2023-12-09T17:41:40.037Z,2.26
2023-12-09T17:44:08.266Z,2.22
2023-12-09T17:46:36.384Z,2.20
2023-12-09T17:49:05.871Z,2.18
2023-12-09T17:51:34.197Z,2.17
2023-12-09T17:54:03.343Z,2.16
2023-12-09T17:56:31.693Z,2.15
2023-12-09T17:58:59.914Z,2.14
2023-12-09T18:01:29.236Z,2.14
2023-12-09T18:04:00.917Z,2.13
2023-12-09T18:06:29.786Z,2.10
2023-12-09T18:08:58.067Z,2.09
2023-12-09T18:11:26.233Z,2.09
2023-12-09T18:13:54.973Z,2.08
2023-12-09T18:16:23.225Z,2.08
2023-12-09T18:18:51.603Z,2.08
2023-12-09T18:21:19.877Z,2.07
2023-12-09T18:23:47.994Z,2.05
2023-12-09T18:26:17.480Z,2.03
2023-12-09T18:28:46.518Z,2.03
2023-12-09T18:31:15.264Z,2.04
2023-12-09T18:33:43.516Z,2.04
2023-12-09T18:36:11.927Z,2.04
2023-12-09T18:38:40.197Z,2.04
2023-12-09T18:41:08.293Z,2.03
2023-12-09T18:43:36.878Z,2.02
2023-12-09T18:46:05.562Z,2.00
2023-12-09T18:48:33.847Z,1.99
2023-12-09T18:51:03.026Z,1.97
2023-12-09T18:53:31.224Z,1.96
2023-12-09T18:56:01.941Z,1.97
2023-12-09T18:58:30.062Z,1.96
2023-12-09T19:01:05.096Z,1.95
2023-12-09T19:03:39.133Z,1.96
2023-12-09T19:06:10.064Z,1.99
2023-12-09T19:08:39.028Z,2.01
2023-12-09T19:11:07.616Z,2.02
2023-12-09T19:13:35.956Z,2.04
2023-12-09T19:16:04.565Z,2.07
2023-12-09T19:18:32.994Z,2.11
2023-12-09T19:21:01.321Z,2.15
2023-12-09T19:23:29.454Z,2.20
2023-12-09T19:25:58.028Z,2.26
2023-12-09T19:28:27.049Z,2.31
2023-12-09T19:30:56.453Z,2.39
2023-12-09T19:33:25.005Z,2.47
2023-12-09T19:35:53.633Z,2.53
2023-12-09T19:38:21.823Z,2.58
2023-12-09T19:40:50.049Z,2.60
2023-12-09T19:43:18.334Z,2.61
2023-12-09T19:45:46.503Z,2.61
2023-12-09T19:48:15.328Z,2.60
2023-12-09T19:50:45.077Z,2.61
2023-12-09T19:53:15.771Z,2.61
2023-12-09T19:55:43.928Z,2.58
2023-12-09T19:58:12.328Z,2.55
2023-12-09T20:00:42.244Z,2.54
2023-12-09T20:03:13.811Z,2.50
2023-12-09T20:05:42.121Z,2.46
2023-12-09T20:08:10.292Z,2.42
2023-12-09T20:10:38.568Z,2.40
2023-12-09T20:13:07.497Z,2.40
2023-12-09T20:15:35.986Z,2.40
2023-12-09T20:18:04.429Z,2.39
2023-12-09T20:20:33.026Z,2.37
2023-12-09T20:23:01.266Z,2.36
2023-12-09T20:25:29.511Z,2.35
2023-12-09T20:27:58.714Z,2.36
2023-12-09T20:30:27.111Z,2.37
2023-12-09T20:32:55.456Z,2.39
2023-12-09T20:35:25.472Z,2.42
2023-12-09T20:37:53.770Z,2.46
2023-12-09T20:40:21.997Z,2.51
2023-12-09T20:42:50.330Z,2.55
2023-12-09T20:45:19.594Z,2.58
2023-12-09T20:47:48.186Z,2.60
2023-12-09T20:50:18.158Z,2.61
2023-12-09T20:52:46.424Z,2.63
2023-12-09T20:55:14.896Z,2.66
2023-12-09T20:57:44.274Z,2.67
2023-12-09T21:00:13.706Z,2.69
2023-12-09T21:02:42.312Z,2.73
2023-12-09T21:05:10.726Z,2.75
2023-12-09T21:07:38.975Z,2.78
2023-12-09T21:10:07.613Z,2.80
2023-12-09T21:12:35.969Z,2.83
2023-12-09T21:15:05.375Z,2.87
2023-12-09T21:17:33.599Z,2.91
2023-12-09T21:20:01.976Z,2.93
2023-12-09T21:22:30.388Z,2.95
2023-12-09T21:24:59.052Z,2.96
2023-12-09T21:27:27.259Z,2.95
2023-12-09T21:29:55.657Z,2.96
2023-12-09T21:32:23.765Z,2.99
2023-12-09T21:34:52.052Z,3.00
2023-12-09T21:37:20.217Z,3.01
2023-12-09T21:39:48.386Z,3.01
2023-12-09T21:42:16.653Z,3.03
2023-12-09T21:44:46.109Z,3.02
2023-12-09T21:47:14.402Z,3.00
2023-12-09T21:49:42.753Z,2.98
2023-12-09T21:52:11.210Z,2.97
2023-12-09T21:54:39.961Z,2.93
2023-12-09T21:57:08.222Z,2.91
2023-12-09T21:59:36.413Z,2.89
2023-12-09T22:02:05.126Z,2.89
2023-12-09T22:04:34.451Z,2.89
2023-12-09T22:07:02.752Z,2.90
2023-12-09T22:09:31.025Z,2.93
2023-12-09T22:11:59.196Z,2.95
2023-12-09T22:14:27.380Z,2.98
2023-12-09T22:16:55.784Z,3.01
2023-12-09T22:19:25.592Z,3.05
2023-12-09T22:21:53.982Z,3.08
2023-12-09T22:24:22.264Z,3.09
2023-12-09T22:26:50.723Z,3.13
2023-12-09T22:29:19.026Z,3.18
2023-12-09T22:31:47.603Z,3.22
2023-12-09T22:34:15.870Z,3.26
2023-12-09T22:36:44.127Z,3.27
2023-12-09T22:39:13.915Z,3.28
2023-12-09T22:41:42.308Z,3.28
2023-12-09T22:44:10.509Z,3.28
2023-12-09T22:46:39.072Z,3.29
2023-12-09T22:49:07.628Z,3.28
2023-12-09T22:51:37.289Z,3.27
2023-12-09T22:54:05.931Z,3.29
2023-12-09T22:56:34.149Z,3.29
2023-12-09T22:59:02.452Z,3.30
2023-12-09T23:01:34.087Z,3.30
2023-12-09T23:04:02.839Z,3.30
2023-12-09T23:06:31.303Z,3.30
2023-12-09T23:08:59.616Z,3.30
2023-12-09T23:11:27.820Z,3.29
2023-12-09T23:13:55.987Z,3.30
2023-12-09T23:16:24.212Z,3.32
2023-12-09T23:18:52.727Z,3.34
2023-12-09T23:21:21.047Z,3.33
2023-12-09T23:23:49.500Z,3.30
2023-12-09T23:26:17.841Z,3.31
2023-12-09T23:28:46.026Z,3.35
2023-12-09T23:31:16.498Z,3.39
2023-12-09T23:33:48.232Z,3.46
2023-12-09T23:36:16.932Z,3.50
2023-12-09T23:38:45.145Z,3.51
2023-12-09T23:41:17.381Z,3.53
2023-12-09T23:43:45.800Z,3.56
2023-12-09T23:46:17.312Z,3.58
2023-12-09T23:48:45.776Z,3.58
2023-12-09T23:51:14.093Z,3.57
2023-12-09T23:53:42.247Z,3.56
2023-12-09T23:56:10.552Z,3.56
2023-12-09T23:58:38.929Z,3.57
